Terminal Aerodrome Forecast
Issued by NWS Twin Cities, MN

Home | Current Version | Previous Version | Text Only | Print | Product List | Glossary Off
Versions: 1 2 3 4 5 6 7 8 9 10 11 12 13 14

000
FTUS43 KMPX 271120
TAFEAU
TAF
KEAU 271120Z 2712/2812 33008KT 5SM -SN BKN012 OVC025
      TEMPO 2712/2716 3SM -SN BKN008 OVC012
     FM271600 28012G19KT P6SM SCT012 OVC020
     FM280800 27006KT P6SM SCT030=

USA.gov is the U.S. government's official web portal to all federal, state and local government web resources and services.